sensor_id;sensor_type;location;lat;lon;timestamp;temperature;humidity
49032;DHT22;63443;48.366;10.876;2023-04-28T00:01:46;12.40;99.90
49032;DHT22;63443;48.366;10.876;2023-04-28T00:04:12;12.40;99.90
49032;DHT22;63443;48.366;10.876;2023-04-28T00:06:38;12.40;99.90
49032;DHT22;63443;48.366;10.876;2023-04-28T00:09:06;12.30;99.90
49032;DHT22;63443;48.366;10.876;2023-04-28T00:11:35;12.30;99.90
49032;DHT22;63443;48.366;10.876;2023-04-28T00:14:01;12.30;99.90
49032;DHT22;63443;48.366;10.876;2023-04-28T00:16:27;12.40;99.90
49032;DHT22;63443;48.366;10.876;2023-04-28T00:18:52;12.30;99.90
49032;DHT22;63443;48.366;10.876;2023-04-28T00:21:18;12.30;99.90
49032;DHT22;63443;48.366;10.876;2023-04-28T00:23:43;12.30;99.90
49032;DHT22;63443;48.366;10.876;2023-04-28T00:26:09;12.30;99.90
49032;DHT22;63443;48.366;10.876;2023-04-28T00:28:34;12.40;99.90
49032;DHT22;63443;48.366;10.876;2023-04-28T00:31:00;12.40;99.90
49032;DHT22;63443;48.366;10.876;2023-04-28T00:33:25;12.40;99.90
49032;DHT22;63443;48.366;10.876;2023-04-28T00:36:00;12.40;99.90
49032;DHT22;63443;48.366;10.876;2023-04-28T00:38:26;12.40;99.90
49032;DHT22;63443;48.366;10.876;2023-04-28T00:40:52;12.40;99.90
49032;DHT22;63443;48.366;10.876;2023-04-28T00:43:17;12.40;99.90
49032;DHT22;63443;48.366;10.876;2023-04-28T00:45:43;12.40;99.90
49032;DHT22;63443;48.366;10.876;2023-04-28T00:48:08;12.50;99.90
49032;DHT22;63443;48.366;10.876;2023-04-28T00:50:34;12.50;99.90
49032;DHT22;63443;48.366;10.876;2023-04-28T00:53:00;12.50;99.90
49032;DHT22;63443;48.366;10.876;2023-04-28T00:55:27;12.50;99.90
49032;DHT22;63443;48.366;10.876;2023-04-28T00:57:56;12.50;99.90
49032;DHT22;63443;48.366;10.876;2023-04-28T01:00:22;12.50;99.90
49032;DHT22;63443;48.366;10.876;2023-04-28T01:02:49;12.50;99.90
49032;DHT22;63443;48.366;10.876;2023-04-28T01:05:15;12.60;99.90
49032;DHT22;63443;48.366;10.876;2023-04-28T01:07:41;12.50;99.90
49032;DHT22;63443;48.366;10.876;2023-04-28T01:10:07;12.50;99.90
49032;DHT22;63443;48.366;10.876;2023-04-28T01:12:33;12.50;99.90
49032;DHT22;63443;48.366;10.876;2023-04-28T01:14:59;12.50;99.90
49032;DHT22;63443;48.366;10.876;2023-04-28T01:17:25;12.50;99.90
49032;DHT22;63443;48.366;10.876;2023-04-28T01:19:50;12.60;99.90
49032;DHT22;63443;48.366;10.876;2023-04-28T01:22:17;12.60;99.90
49032;DHT22;63443;48.366;10.876;2023-04-28T01:24:43;12.60;99.90
49032;DHT22;63443;48.366;10.876;2023-04-28T01:27:08;12.70;99.90
49032;DHT22;63443;48.366;10.876;2023-04-28T01:29:34;12.60;99.90
49032;DHT22;63443;48.366;10.876;2023-04-28T01:32:00;12.50;99.90
49032;DHT22;63443;48.366;10.876;2023-04-28T01:34:25;12.50;99.90
49032;DHT22;63443;48.366;10.876;2023-04-28T01:36:51;12.40;99.90
49032;DHT22;63443;48.366;10.876;2023-04-28T01:39:16;12.40;99.90
49032;DHT22;63443;48.366;10.876;2023-04-28T01:41:42;12.40;99.90
49032;DHT22;63443;48.366;10.876;2023-04-28T01:44:07;12.40;99.90
49032;DHT22;63443;48.366;10.876;2023-04-28T01:46:33;12.40;99.90
49032;DHT22;63443;48.366;10.876;2023-04-28T01:48:59;12.40;99.90
49032;DHT22;63443;48.366;10.876;2023-04-28T01:51:25;12.40;99.90
49032;DHT22;63443;48.366;10.876;2023-04-28T01:53:51;12.40;99.90
49032;DHT22;63443;48.366;10.876;2023-04-28T01:56:17;12.40;99.90
49032;DHT22;63443;48.366;10.876;2023-04-28T01:58:42;12.50;99.90
49032;DHT22;63443;48.366;10.876;2023-04-28T02:01:08;12.50;99.90
49032;DHT22;63443;48.366;10.876;2023-04-28T02:03:34;12.50;99.90
49032;DHT22;63443;48.366;10.876;2023-04-28T02:05:59;12.50;99.90
49032;DHT22;63443;48.366;10.876;2023-04-28T02:08:25;12.50;99.90
49032;DHT22;63443;48.366;10.876;2023-04-28T02:10:50;12.60;99.90
49032;DHT22;63443;48.366;10.876;2023-04-28T02:13:16;12.50;99.90
49032;DHT22;63443;48.366;10.876;2023-04-28T02:15:42;12.50;99.90
49032;DHT22;63443;48.366;10.876;2023-04-28T02:18:11;12.50;99.90
49032;DHT22;63443;48.366;10.876;2023-04-28T02:20:36;12.50;99.90
49032;DHT22;63443;48.366;10.876;2023-04-28T02:23:02;12.50;99.90
49032;DHT22;63443;48.366;10.876;2023-04-28T02:25:27;12.50;99.90
49032;DHT22;63443;48.366;10.876;2023-04-28T02:27:53;12.50;99.90
49032;DHT22;63443;48.366;10.876;2023-04-28T02:30:18;12.50;99.90
49032;DHT22;63443;48.366;10.876;2023-04-28T02:32:44;12.50;99.90
49032;DHT22;63443;48.366;10.876;2023-04-28T02:35:10;12.50;99.90
49032;DHT22;63443;48.366;10.876;2023-04-28T02:37:35;12.50;99.90
49032;DHT22;63443;48.366;10.876;2023-04-28T02:40:01;12.50;99.90
49032;DHT22;63443;48.366;10.876;2023-04-28T02:42:26;12.50;99.90
49032;DHT22;63443;48.366;10.876;2023-04-28T02:44:52;12.60;99.90
49032;DHT22;63443;48.366;10.876;2023-04-28T02:47:18;12.60;99.90
49032;DHT22;63443;48.366;10.876;2023-04-28T02:49:43;12.60;99.90
49032;DHT22;63443;48.366;10.876;2023-04-28T02:52:09;12.60;99.90
49032;DHT22;63443;48.366;10.876;2023-04-28T02:54:34;12.60;99.90
49032;DHT22;63443;48.366;10.876;2023-04-28T02:57:01;12.50;99.90
49032;DHT22;63443;48.366;10.876;2023-04-28T02:59:29;12.50;99.90
49032;DHT22;63443;48.366;10.876;2023-04-28T03:01:55;12.50;99.90
49032;DHT22;63443;48.366;10.876;2023-04-28T03:04:21;12.50;99.90
49032;DHT22;63443;48.366;10.876;2023-04-28T03:06:46;12.50;99.90
49032;DHT22;63443;48.366;10.876;2023-04-28T03:09:12;12.50;99.90
49032;DHT22;63443;48.366;10.876;2023-04-28T03:11:38;12.60;99.90
49032;DHT22;63443;48.366;10.876;2023-04-28T03:14:03;12.60;99.90
49032;DHT22;63443;48.366;10.876;2023-04-28T03:16:29;12.60;99.90
49032;DHT22;63443;48.366;10.876;2023-04-28T03:18:54;12.50;99.90
49032;DHT22;63443;48.366;10.876;2023-04-28T03:21:20;12.40;99.90
49032;DHT22;63443;48.366;10.876;2023-04-28T03:23:46;12.30;99.90
49032;DHT22;63443;48.366;10.876;2023-04-28T03:26:11;12.30;99.90
49032;DHT22;63443;48.366;10.876;2023-04-28T03:28:37;12.30;99.90
49032;DHT22;63443;48.366;10.876;2023-04-28T03:31:02;12.30;99.90
49032;DHT22;63443;48.366;10.876;2023-04-28T03:33:28;12.30;99.90
49032;DHT22;63443;48.366;10.876;2023-04-28T03:35:53;12.30;99.90
49032;DHT22;63443;48.366;10.876;2023-04-28T03:38:19;12.30;99.90
49032;DHT22;63443;48.366;10.876;2023-04-28T03:40:45;12.30;99.90
49032;DHT22;63443;48.366;10.876;2023-04-28T03:43:10;12.30;99.90
49032;DHT22;63443;48.366;10.876;2023-04-28T03:45:36;12.40;99.90
49032;DHT22;63443;48.366;10.876;2023-04-28T03:48:02;12.40;99.90
49032;DHT22;63443;48.366;10.876;2023-04-28T03:50:27;12.40;99.90
49032;DHT22;63443;48.366;10.876;2023-04-28T03:52:53;12.40;99.90
49032;DHT22;63443;48.366;10.876;2023-04-28T03:55:18;12.40;99.90
49032;DHT22;63443;48.366;10.876;2023-04-28T03:57:44;12.40;99.90
49032;DHT22;63443;48.366;10.876;2023-04-28T04:00:10;12.40;99.90
49032;DHT22;63443;48.366;10.876;2023-04-28T04:02:36;12.40;99.90
49032;DHT22;63443;48.366;10.876;2023-04-28T04:05:01;12.50;99.90
49032;DHT22;63443;48.366;10.876;2023-04-28T04:07:27;12.50;99.90
49032;DHT22;63443;48.366;10.876;2023-04-28T04:09:52;12.40;99.90
49032;DHT22;63443;48.366;10.876;2023-04-28T04:12:18;12.40;99.90
49032;DHT22;63443;48.366;10.876;2023-04-28T04:14:43;12.40;99.90
49032;DHT22;63443;48.366;10.876;2023-04-28T04:17:10;12.40;99.90
49032;DHT22;63443;48.366;10.876;2023-04-28T04:19:36;12.50;99.90
49032;DHT22;63443;48.366;10.876;2023-04-28T04:22:01;12.50;99.90
49032;DHT22;63443;48.366;10.876;2023-04-28T04:24:27;12.50;99.90
49032;DHT22;63443;48.366;10.876;2023-04-28T04:26:52;12.50;99.90
49032;DHT22;63443;48.366;10.876;2023-04-28T04:29:18;12.50;99.90
49032;DHT22;63443;48.366;10.876;2023-04-28T04:31:43;12.50;99.90
49032;DHT22;63443;48.366;10.876;2023-04-28T04:34:10;12.50;99.90
49032;DHT22;63443;48.366;10.876;2023-04-28T04:36:35;12.50;99.90
49032;DHT22;63443;48.366;10.876;2023-04-28T04:39:01;12.40;99.90
49032;DHT22;63443;48.366;10.876;2023-04-28T04:41:27;12.40;99.90
49032;DHT22;63443;48.366;10.876;2023-04-28T04:43:52;12.20;99.90
49032;DHT22;63443;48.366;10.876;2023-04-28T04:46:18;12.20;99.90
49032;DHT22;63443;48.366;10.876;2023-04-28T04:48:43;12.10;99.90
49032;DHT22;63443;48.366;10.876;2023-04-28T04:51:09;12.10;99.90
49032;DHT22;63443;48.366;10.876;2023-04-28T04:53:35;12.10;99.90
49032;DHT22;63443;48.366;10.876;2023-04-28T04:56:01;12.10;99.90
49032;DHT22;63443;48.366;10.876;2023-04-28T04:58:27;12.20;99.90
49032;DHT22;63443;48.366;10.876;2023-04-28T05:00:52;12.20;99.90
49032;DHT22;63443;48.366;10.876;2023-04-28T05:03:18;12.20;99.90
49032;DHT22;63443;48.366;10.876;2023-04-28T05:05:44;12.20;99.90
49032;DHT22;63443;48.366;10.876;2023-04-28T05:08:10;12.20;99.90
49032;DHT22;63443;48.366;10.876;2023-04-28T05:10:36;12.20;99.90
49032;DHT22;63443;48.366;10.876;2023-04-28T05:13:02;12.20;99.90
49032;DHT22;63443;48.366;10.876;2023-04-28T05:15:28;12.20;99.90
49032;DHT22;63443;48.366;10.876;2023-04-28T05:17:54;12.20;99.90
49032;DHT22;63443;48.366;10.876;2023-04-28T05:20:20;12.20;99.90
49032;DHT22;63443;48.366;10.876;2023-04-28T05:22:45;12.20;99.90
49032;DHT22;63443;48.366;10.876;2023-04-28T05:25:11;12.10;99.90
49032;DHT22;63443;48.366;10.876;2023-04-28T05:27:36;12.00;99.90
49032;DHT22;63443;48.366;10.876;2023-04-28T05:30:05;12.00;99.90
49032;DHT22;63443;48.366;10.876;2023-04-28T05:32:33;11.90;99.90
49032;DHT22;63443;48.366;10.876;2023-04-28T05:34:59;12.00;99.90
49032;DHT22;63443;48.366;10.876;2023-04-28T05:37:24;11.90;99.90
49032;DHT22;63443;48.366;10.876;2023-04-28T05:39:50;12.00;99.90
49032;DHT22;63443;48.366;10.876;2023-04-28T05:42:15;11.90;99.90
49032;DHT22;63443;48.366;10.876;2023-04-28T05:44:41;11.90;99.90
49032;DHT22;63443;48.366;10.876;2023-04-28T05:47:07;11.90;99.90
49032;DHT22;63443;48.366;10.876;2023-04-28T05:49:33;11.90;99.90
49032;DHT22;63443;48.366;10.876;2023-04-28T05:51:58;11.90;99.90
49032;DHT22;63443;48.366;10.876;2023-04-28T05:54:24;11.80;99.90
49032;DHT22;63443;48.366;10.876;2023-04-28T05:56:50;11.80;99.90
49032;DHT22;63443;48.366;10.876;2023-04-28T05:59:15;11.90;99.90
49032;DHT22;63443;48.366;10.876;2023-04-28T06:01:41;12.00;99.90
49032;DHT22;63443;48.366;10.876;2023-04-28T06:04:06;12.10;99.90
49032;DHT22;63443;48.366;10.876;2023-04-28T06:06:32;12.00;99.90
49032;DHT22;63443;48.366;10.876;2023-04-28T06:08:58;12.10;99.90
49032;DHT22;63443;48.366;10.876;2023-04-28T06:11:24;12.00;99.90
49032;DHT22;63443;48.366;10.876;2023-04-28T06:13:49;12.00;99.90
49032;DHT22;63443;48.366;10.876;2023-04-28T06:16:16;12.00;99.90
49032;DHT22;63443;48.366;10.876;2023-04-28T06:18:42;12.10;99.90
49032;DHT22;63443;48.366;10.876;2023-04-28T06:21:08;12.10;99.90
49032;DHT22;63443;48.366;10.876;2023-04-28T06:23:33;12.20;99.90
49032;DHT22;63443;48.366;10.876;2023-04-28T06:26:00;12.20;99.90
49032;DHT22;63443;48.366;10.876;2023-04-28T06:28:25;12.30;99.90
49032;DHT22;63443;48.366;10.876;2023-04-28T06:30:51;12.40;99.90
49032;DHT22;63443;48.366;10.876;2023-04-28T06:33:16;12.40;99.90
49032;DHT22;63443;48.366;10.876;2023-04-28T06:35:42;12.40;99.90
49032;DHT22;63443;48.366;10.876;2023-04-28T06:38:07;12.50;99.90
49032;DHT22;63443;48.366;10.876;2023-04-28T06:40:33;12.60;99.90
49032;DHT22;63443;48.366;10.876;2023-04-28T06:42:58;12.60;99.90
49032;DHT22;63443;48.366;10.876;2023-04-28T06:45:24;12.60;99.90
49032;DHT22;63443;48.366;10.876;2023-04-28T06:47:50;12.60;99.90
49032;DHT22;63443;48.366;10.876;2023-04-28T06:50:16;12.70;99.90
49032;DHT22;63443;48.366;10.876;2023-04-28T06:52:41;12.70;99.90
49032;DHT22;63443;48.366;10.876;2023-04-28T06:55:07;12.70;99.90
49032;DHT22;63443;48.366;10.876;2023-04-28T06:57:36;12.80;99.90
49032;DHT22;63443;48.366;10.876;2023-04-28T07:00:02;12.80;99.90
49032;DHT22;63443;48.366;10.876;2023-04-28T07:02:28;12.80;99.90
49032;DHT22;63443;48.366;10.876;2023-04-28T07:04:54;12.80;99.90
49032;DHT22;63443;48.366;10.876;2023-04-28T07:07:20;12.80;99.90
49032;DHT22;63443;48.366;10.876;2023-04-28T07:09:45;12.80;99.90
49032;DHT22;63443;48.366;10.876;2023-04-28T07:12:11;12.90;99.90
49032;DHT22;63443;48.366;10.876;2023-04-28T07:14:36;12.90;99.90
49032;DHT22;63443;48.366;10.876;2023-04-28T07:17:02;12.90;99.90
49032;DHT22;63443;48.366;10.876;2023-04-28T07:19:27;12.90;99.90
49032;DHT22;63443;48.366;10.876;2023-04-28T07:21:53;12.90;99.90
49032;DHT22;63443;48.366;10.876;2023-04-28T07:24:19;13.00;99.90
49032;DHT22;63443;48.366;10.876;2023-04-28T07:26:45;13.00;99.90
49032;DHT22;63443;48.366;10.876;2023-04-28T07:29:10;13.10;99.90
49032;DHT22;63443;48.366;10.876;2023-04-28T07:31:38;13.10;99.90
49032;DHT22;63443;48.366;10.876;2023-04-28T07:34:03;13.20;99.90
49032;DHT22;63443;48.366;10.876;2023-04-28T07:36:29;13.20;99.90
49032;DHT22;63443;48.366;10.876;2023-04-28T07:38:55;13.40;99.90
49032;DHT22;63443;48.366;10.876;2023-04-28T07:41:20;13.40;99.90
49032;DHT22;63443;48.366;10.876;2023-04-28T07:43:46;13.50;99.90
49032;DHT22;63443;48.366;10.876;2023-04-28T07:46:12;13.40;99.90
49032;DHT22;63443;48.366;10.876;2023-04-28T07:48:38;13.40;99.90
49032;DHT22;63443;48.366;10.876;2023-04-28T07:51:03;13.40;99.90
49032;DHT22;63443;48.366;10.876;2023-04-28T07:53:32;13.30;99.90
49032;DHT22;63443;48.366;10.876;2023-04-28T07:55:58;13.30;99.90
49032;DHT22;63443;48.366;10.876;2023-04-28T07:58:25;13.30;99.90
49032;DHT22;63443;48.366;10.876;2023-04-28T08:00:50;13.20;99.90
49032;DHT22;63443;48.366;10.876;2023-04-28T08:03:16;13.20;99.90
49032;DHT22;63443;48.366;10.876;2023-04-28T08:05:41;13.30;99.90
49032;DHT22;63443;48.366;10.876;2023-04-28T08:08:09;13.30;99.90
49032;DHT22;63443;48.366;10.876;2023-04-28T08:10:35;13.30;99.90
49032;DHT22;63443;48.366;10.876;2023-04-28T08:13:00;13.30;99.90
49032;DHT22;63443;48.366;10.876;2023-04-28T08:15:26;13.30;99.90
49032;DHT22;63443;48.366;10.876;2023-04-28T08:17:52;13.40;99.90
49032;DHT22;63443;48.366;10.876;2023-04-28T08:20:17;13.40;99.90
49032;DHT22;63443;48.366;10.876;2023-04-28T08:22:46;13.50;99.90
49032;DHT22;63443;48.366;10.876;2023-04-28T08:25:12;13.50;99.90
49032;DHT22;63443;48.366;10.876;2023-04-28T08:27:37;13.50;99.90
49032;DHT22;63443;48.366;10.876;2023-04-28T08:30:06;13.50;99.90
49032;DHT22;63443;48.366;10.876;2023-04-28T08:32:32;13.50;99.90
49032;DHT22;63443;48.366;10.876;2023-04-28T08:34:58;13.50;99.90
49032;DHT22;63443;48.366;10.876;2023-04-28T08:37:25;13.60;99.90
49032;DHT22;63443;48.366;10.876;2023-04-28T08:39:51;13.60;99.90
49032;DHT22;63443;48.366;10.876;2023-04-28T08:42:25;13.60;99.90
49032;DHT22;63443;48.366;10.876;2023-04-28T08:44:58;13.50;99.90
49032;DHT22;63443;48.366;10.876;2023-04-28T08:47:33;13.50;99.90
49032;DHT22;63443;48.366;10.876;2023-04-28T08:50:03;13.50;99.90
49032;DHT22;63443;48.366;10.876;2023-04-28T08:52:29;13.50;99.90
49032;DHT22;63443;48.366;10.876;2023-04-28T08:54:58;13.50;99.90
49032;DHT22;63443;48.366;10.876;2023-04-28T08:57:26;13.50;99.90
49032;DHT22;63443;48.366;10.876;2023-04-28T08:59:52;13.50;99.90
49032;DHT22;63443;48.366;10.876;2023-04-28T09:02:18;13.50;99.90
49032;DHT22;63443;48.366;10.876;2023-04-28T09:04:46;13.50;99.90
49032;DHT22;63443;48.366;10.876;2023-04-28T09:07:12;13.40;99.90
49032;DHT22;63443;48.366;10.876;2023-04-28T09:09:38;13.40;99.90
49032;DHT22;63443;48.366;10.876;2023-04-28T09:12:05;13.40;99.90
49032;DHT22;63443;48.366;10.876;2023-04-28T09:14:35;13.40;99.90
49032;DHT22;63443;48.366;10.876;2023-04-28T09:17:02;13.40;99.90
49032;DHT22;63443;48.366;10.876;2023-04-28T09:19:35;13.40;99.90
49032;DHT22;63443;48.366;10.876;2023-04-28T09:22:01;13.30;99.90
49032;DHT22;63443;48.366;10.876;2023-04-28T09:24:35;13.30;99.90
49032;DHT22;63443;48.366;10.876;2023-04-28T09:27:05;13.40;99.90
49032;DHT22;63443;48.366;10.876;2023-04-28T09:29:32;13.30;99.90
49032;DHT22;63443;48.366;10.876;2023-04-28T09:32:14;13.40;99.90
49032;DHT22;63443;48.366;10.876;2023-04-28T09:34:45;13.40;99.90
49032;DHT22;63443;48.366;10.876;2023-04-28T09:37:22;13.30;99.90
49032;DHT22;63443;48.366;10.876;2023-04-28T09:39:49;13.20;99.90
49032;DHT22;63443;48.366;10.876;2023-04-28T09:45:03;13.20;99.90
49032;DHT22;63443;48.366;10.876;2023-04-28T09:47:30;13.30;99.90
49032;DHT22;63443;48.366;10.876;2023-04-28T09:49:59;13.30;99.90
49032;DHT22;63443;48.366;10.876;2023-04-28T09:52:25;13.30;99.90
49032;DHT22;63443;48.366;10.876;2023-04-28T09:54:52;13.40;99.90
49032;DHT22;63443;48.366;10.876;2023-04-28T09:57:19;13.40;99.90
49032;DHT22;63443;48.366;10.876;2023-04-28T09:59:50;13.40;99.90
49032;DHT22;63443;48.366;10.876;2023-04-28T10:02:18;13.30;99.90
49032;DHT22;63443;48.366;10.876;2023-04-28T10:04:46;13.40;99.90
49032;DHT22;63443;48.366;10.876;2023-04-28T10:07:12;13.30;99.90
49032;DHT22;63443;48.366;10.876;2023-04-28T10:09:44;13.40;99.90
49032;DHT22;63443;48.366;10.876;2023-04-28T10:12:13;13.40;99.90
49032;DHT22;63443;48.366;10.876;2023-04-28T10:14:40;13.40;99.90
49032;DHT22;63443;48.366;10.876;2023-04-28T10:17:05;13.40;99.90
49032;DHT22;63443;48.366;10.876;2023-04-28T10:19:32;13.40;99.90
49032;DHT22;63443;48.366;10.876;2023-04-28T10:27:45;13.50;99.90
49032;DHT22;63443;48.366;10.876;2023-04-28T10:30:13;13.40;99.90
49032;DHT22;63443;48.366;10.876;2023-04-28T10:32:39;13.50;99.90
49032;DHT22;63443;48.366;10.876;2023-04-28T10:38:05;13.40;99.90
49032;DHT22;63443;48.366;10.876;2023-04-28T10:43:08;13.40;99.90
49032;DHT22;63443;48.366;10.876;2023-04-28T10:48:19;13.40;99.90
49032;DHT22;63443;48.366;10.876;2023-04-28T10:56:24;13.50;99.90
49032;DHT22;63443;48.366;10.876;2023-04-28T10:58:52;13.50;99.90
49032;DHT22;63443;48.366;10.876;2023-04-28T11:06:27;13.50;99.90
49032;DHT22;63443;48.366;10.876;2023-04-28T11:11:22;13.60;99.90
49032;DHT22;63443;48.366;10.876;2023-04-28T11:13:50;13.60;99.90
49032;DHT22;63443;48.366;10.876;2023-04-28T11:16:21;13.70;99.90
49032;DHT22;63443;48.366;10.876;2023-04-28T11:18:49;13.90;99.90
49032;DHT22;63443;48.366;10.876;2023-04-28T11:21:19;14.00;99.90
49032;DHT22;63443;48.366;10.876;2023-04-28T11:23:45;14.00;99.90
49032;DHT22;63443;48.366;10.876;2023-04-28T11:26:11;14.00;99.90
49032;DHT22;63443;48.366;10.876;2023-04-28T11:28:46;14.00;99.90
49032;DHT22;63443;48.366;10.876;2023-04-28T11:31:13;14.20;99.90
49032;DHT22;63443;48.366;10.876;2023-04-28T11:33:45;14.30;99.90
49032;DHT22;63443;48.366;10.876;2023-04-28T11:36:31;14.40;99.90
49032;DHT22;63443;48.366;10.876;2023-04-28T11:38:58;14.60;99.90
49032;DHT22;63443;48.366;10.876;2023-04-28T11:41:24;14.60;99.90
49032;DHT22;63443;48.366;10.876;2023-04-28T11:43:51;14.70;99.90
49032;DHT22;63443;48.366;10.876;2023-04-28T11:46:22;14.80;99.90
49032;DHT22;63443;48.366;10.876;2023-04-28T11:48:54;14.70;99.90
49032;DHT22;63443;48.366;10.876;2023-04-28T11:53:56;14.80;99.90
49032;DHT22;63443;48.366;10.876;2023-04-28T11:56:22;14.90;99.90
49032;DHT22;63443;48.366;10.876;2023-04-28T12:01:26;15.10;99.90
49032;DHT22;63443;48.366;10.876;2023-04-28T12:03:51;15.20;99.90
49032;DHT22;63443;48.366;10.876;2023-04-28T12:06:17;15.20;99.90
49032;DHT22;63443;48.366;10.876;2023-04-28T12:08:43;15.20;99.90
49032;DHT22;63443;48.366;10.876;2023-04-28T12:11:10;15.30;99.90
49032;DHT22;63443;48.366;10.876;2023-04-28T12:13:39;15.20;99.90
49032;DHT22;63443;48.366;10.876;2023-04-28T12:16:06;15.30;99.90
49032;DHT22;63443;48.366;10.876;2023-04-28T12:18:35;15.40;99.90
49032;DHT22;63443;48.366;10.876;2023-04-28T12:21:02;15.60;99.90
49032;DHT22;63443;48.366;10.876;2023-04-28T12:23:32;15.70;99.90
49032;DHT22;63443;48.366;10.876;2023-04-28T12:25:58;15.80;99.90
49032;DHT22;63443;48.366;10.876;2023-04-28T12:28:35;15.70;99.90
49032;DHT22;63443;48.366;10.876;2023-04-28T12:31:03;15.60;99.90
49032;DHT22;63443;48.366;10.876;2023-04-28T12:33:29;15.60;99.90
49032;DHT22;63443;48.366;10.876;2023-04-28T12:35:56;15.50;99.90
49032;DHT22;63443;48.366;10.876;2023-04-28T12:38:22;15.40;99.90
49032;DHT22;63443;48.366;10.876;2023-04-28T12:40:48;15.30;99.90
49032;DHT22;63443;48.366;10.876;2023-04-28T12:43:14;15.30;99.90
49032;DHT22;63443;48.366;10.876;2023-04-28T12:45:40;15.10;99.90
49032;DHT22;63443;48.366;10.876;2023-04-28T12:48:06;15.00;99.90
49032;DHT22;63443;48.366;10.876;2023-04-28T12:50:32;14.90;99.90
49032;DHT22;63443;48.366;10.876;2023-04-28T12:52:57;14.80;99.90
49032;DHT22;63443;48.366;10.876;2023-04-28T12:55:24;14.70;99.90
49032;DHT22;63443;48.366;10.876;2023-04-28T12:57:50;14.70;99.90
49032;DHT22;63443;48.366;10.876;2023-04-28T13:00:16;14.60;99.90
49032;DHT22;63443;48.366;10.876;2023-04-28T13:02:45;14.70;99.90
49032;DHT22;63443;48.366;10.876;2023-04-28T13:05:11;14.80;99.90
49032;DHT22;63443;48.366;10.876;2023-04-28T13:07:37;15.00;99.90
49032;DHT22;63443;48.366;10.876;2023-04-28T13:10:03;15.10;99.90
49032;DHT22;63443;48.366;10.876;2023-04-28T13:12:29;15.20;99.90
49032;DHT22;63443;48.366;10.876;2023-04-28T13:14:54;15.20;99.90
49032;DHT22;63443;48.366;10.876;2023-04-28T13:17:20;15.30;99.90
49032;DHT22;63443;48.366;10.876;2023-04-28T13:19:45;15.30;99.90
49032;DHT22;63443;48.366;10.876;2023-04-28T13:22:11;15.40;99.90
49032;DHT22;63443;48.366;10.876;2023-04-28T13:24:37;15.40;99.90
49032;DHT22;63443;48.366;10.876;2023-04-28T13:27:02;15.40;99.90
49032;DHT22;63443;48.366;10.876;2023-04-28T13:29:28;15.50;99.90
49032;DHT22;63443;48.366;10.876;2023-04-28T13:31:55;15.50;99.90
49032;DHT22;63443;48.366;10.876;2023-04-28T13:34:21;15.60;99.90
49032;DHT22;63443;48.366;10.876;2023-04-28T13:36:46;15.60;99.90
49032;DHT22;63443;48.366;10.876;2023-04-28T13:39:15;15.70;99.90
49032;DHT22;63443;48.366;10.876;2023-04-28T13:41:41;15.80;99.90
49032;DHT22;63443;48.366;10.876;2023-04-28T13:44:07;15.90;99.90
49032;DHT22;63443;48.366;10.876;2023-04-28T13:46:33;16.00;99.90
49032;DHT22;63443;48.366;10.876;2023-04-28T13:48:59;16.50;99.90
49032;DHT22;63443;48.366;10.876;2023-04-28T13:51:24;16.70;99.90
49032;DHT22;63443;48.366;10.876;2023-04-28T13:53:50;16.90;99.90
49032;DHT22;63443;48.366;10.876;2023-04-28T13:56:15;17.10;99.90
49032;DHT22;63443;48.366;10.876;2023-04-28T13:58:41;17.10;99.90
49032;DHT22;63443;48.366;10.876;2023-04-28T14:01:06;17.10;99.90
49032;DHT22;63443;48.366;10.876;2023-04-28T14:03:32;17.00;99.90
49032;DHT22;63443;48.366;10.876;2023-04-28T14:05:58;16.90;99.90
49032;DHT22;63443;48.366;10.876;2023-04-28T14:08:25;16.70;99.90
49032;DHT22;63443;48.366;10.876;2023-04-28T14:10:51;16.60;99.90
49032;DHT22;63443;48.366;10.876;2023-04-28T14:13:17;16.40;99.90
49032;DHT22;63443;48.366;10.876;2023-04-28T14:15:43;16.30;99.90
49032;DHT22;63443;48.366;10.876;2023-04-28T14:18:09;16.10;99.90
49032;DHT22;63443;48.366;10.876;2023-04-28T14:20:36;16.10;99.90
49032;DHT22;63443;48.366;10.876;2023-04-28T14:23:02;16.00;99.90
49032;DHT22;63443;48.366;10.876;2023-04-28T14:25:28;16.00;99.90
49032;DHT22;63443;48.366;10.876;2023-04-28T14:27:53;16.00;99.90
49032;DHT22;63443;48.366;10.876;2023-04-28T14:30:20;16.00;99.90
49032;DHT22;63443;48.366;10.876;2023-04-28T14:32:46;15.90;99.90
49032;DHT22;63443;48.366;10.876;2023-04-28T14:35:12;15.90;99.90
49032;DHT22;63443;48.366;10.876;2023-04-28T14:37:38;15.80;99.90
49032;DHT22;63443;48.366;10.876;2023-04-28T14:40:05;15.90;99.90
49032;DHT22;63443;48.366;10.876;2023-04-28T14:42:32;15.80;99.90
49032;DHT22;63443;48.366;10.876;2023-04-28T14:45:07;15.80;99.90
49032;DHT22;63443;48.366;10.876;2023-04-28T14:47:33;15.70;99.90
49032;DHT22;63443;48.366;10.876;2023-04-28T14:50:00;15.80;99.90
49032;DHT22;63443;48.366;10.876;2023-04-28T14:52:25;15.70;99.90
49032;DHT22;63443;48.366;10.876;2023-04-28T14:54:54;15.70;99.90
49032;DHT22;63443;48.366;10.876;2023-04-28T14:57:20;15.70;99.90
49032;DHT22;63443;48.366;10.876;2023-04-28T14:59:45;15.70;99.90
49032;DHT22;63443;48.366;10.876;2023-04-28T15:02:11;15.70;99.90
49032;DHT22;63443;48.366;10.876;2023-04-28T15:04:38;15.70;99.90
49032;DHT22;63443;48.366;10.876;2023-04-28T15:07:03;15.60;99.90
49032;DHT22;63443;48.366;10.876;2023-04-28T15:09:29;15.50;99.90
49032;DHT22;63443;48.366;10.876;2023-04-28T15:11:55;15.40;99.90
49032;DHT22;63443;48.366;10.876;2023-04-28T15:14:21;15.40;99.90
49032;DHT22;63443;48.366;10.876;2023-04-28T15:16:47;15.20;99.90
49032;DHT22;63443;48.366;10.876;2023-04-28T15:19:13;15.10;99.90
49032;DHT22;63443;48.366;10.876;2023-04-28T15:21:39;15.00;99.90
49032;DHT22;63443;48.366;10.876;2023-04-28T15:24:05;15.00;99.90
49032;DHT22;63443;48.366;10.876;2023-04-28T15:26:31;14.90;99.90
49032;DHT22;63443;48.366;10.876;2023-04-28T15:28:57;14.90;99.90
49032;DHT22;63443;48.366;10.876;2023-04-28T15:31:23;14.80;99.90
49032;DHT22;63443;48.366;10.876;2023-04-28T15:33:50;14.80;99.90
49032;DHT22;63443;48.366;10.876;2023-04-28T15:36:16;14.80;99.90
49032;DHT22;63443;48.366;10.876;2023-04-28T15:38:44;14.80;99.90
49032;DHT22;63443;48.366;10.876;2023-04-28T15:41:11;14.80;99.90
49032;DHT22;63443;48.366;10.876;2023-04-28T15:43:36;14.90;99.90
49032;DHT22;63443;48.366;10.876;2023-04-28T15:46:03;14.90;99.90